Fort Benning, Georgia
Current Conditions -  °F | °C
As of 2:58 PM on Friday 28 Nov 2014 (Local Time) from KLSF Reporting Station
Clear Clear  
Wind Chill: 53°   Ceiling: Unl
Heat Index: 53°   Visibility: 10mi
Dew Point: 21°   Wind: 5mph
Humidity: 28%   Direction: 270°W
Pressure: 30.32"   Gusts: NA
Location:  32.35°N, 84.97°W
Report Text: KLSF 281958Z AUTO 27004KT 10SM CLR 12/M06 A3032 RMK AO2 SLP271 T01161063
Loading
Personal Weather Stations






























Interactive Weather Map New forecast layout! Learn more

10-Day Weather Forecast

Advertisements
Track Severe Weather on mobile